createdAt,value
2018-10-19T00:01:19.252Z,49.70
2018-10-19T00:03:50.164Z,46.60
2018-10-19T00:06:19.956Z,44.93
2018-10-19T00:08:53.330Z,41.43
2018-10-19T00:11:23.353Z,45.30
2018-10-19T00:13:57.196Z,45.87
2018-10-19T00:16:26.916Z,46.67
2018-10-19T00:18:56.696Z,44.23
2018-10-19T00:21:27.669Z,42.17
2018-10-19T00:23:57.864Z,43.83
2018-10-19T00:26:28.740Z,47.33
2018-10-19T00:28:58.608Z,44.00
2018-10-19T00:31:28.346Z,46.80
2018-10-19T00:33:58.293Z,46.73
2018-10-19T00:36:30.272Z,46.50
2018-10-19T00:39:00.285Z,45.73
2018-10-19T00:41:31.260Z,46.10
2018-10-19T00:44:05.768Z,43.20
2018-10-19T00:46:35.348Z,44.90
2018-10-19T00:49:05.864Z,46.13
2018-10-19T00:51:36.860Z,44.50
2018-10-19T00:54:11.181Z,46.37
2018-10-19T00:56:41.216Z,45.63
2018-10-19T00:59:12.090Z,45.80
2018-10-19T01:01:43.153Z,44.27
2018-10-19T01:04:13.689Z,49.27
2018-10-19T01:06:43.725Z,44.87
2018-10-19T01:09:19.132Z,44.70
2018-10-19T01:11:49.788Z,46.80
2018-10-19T01:14:19.584Z,44.30
2018-10-19T01:16:49.320Z,43.37
2018-10-19T01:19:19.133Z,44.80
2018-10-19T01:21:48.817Z,43.30
2018-10-19T01:24:19.744Z,45.27
2018-10-19T01:26:49.720Z,45.40
2018-10-19T01:29:27.287Z,46.50
2018-10-19T01:31:57.927Z,46.90
2018-10-19T01:34:29.542Z,44.00
2018-10-19T01:37:04.012Z,43.37
2018-10-19T01:39:35.924Z,45.13
2018-10-19T01:42:06.688Z,42.27
2018-10-19T01:44:36.271Z,43.77
2018-10-19T01:47:07.018Z,43.80
2018-10-19T01:49:38.540Z,42.90
2018-10-19T01:52:08.076Z,43.10
2018-10-19T01:54:37.835Z,41.97
2018-10-19T01:57:07.584Z,43.00
2018-10-19T01:59:38.540Z,43.17
2018-10-19T02:02:08.523Z,42.83
2018-10-19T02:04:38.563Z,42.77
2018-10-19T02:07:09.612Z,42.40
2018-10-19T02:09:40.571Z,47.30
2018-10-19T02:12:10.517Z,46.17
2018-10-19T02:15:11.162Z,45.30
2018-10-19T02:17:52.217Z,45.10
2018-10-19T02:20:22.451Z,44.03
2018-10-19T02:22:59.383Z,43.73
2018-10-19T02:25:33.655Z,44.50
2018-10-19T02:28:05.660Z,45.77
2018-10-19T02:30:35.386Z,45.53
2018-10-19T02:33:07.375Z,45.47
2018-10-19T02:35:41.168Z,43.13
2018-10-19T02:38:11.132Z,49.17
2018-10-19T02:40:43.172Z,50.63
2018-10-19T02:43:13.143Z,46.70
2018-10-19T02:45:43.072Z,46.80
2018-10-19T02:48:12.964Z,47.00
2018-10-19T02:50:43.904Z,48.07
2018-10-19T02:53:16.820Z,43.97
2018-10-19T02:55:47.704Z,48.27
2018-10-19T02:58:18.700Z,43.50
2018-10-19T03:00:50.708Z,44.47
2018-10-19T03:03:20.454Z,45.57
2018-10-19T03:05:50.104Z,45.10
2018-10-19T03:08:20.021Z,46.27
2018-10-19T03:10:51.043Z,43.13
2018-10-19T03:13:20.760Z,43.50
2018-10-19T03:15:52.472Z,45.47
2018-10-19T03:18:24.360Z,45.90
2018-10-19T03:20:56.390Z,48.80
2018-10-19T03:23:26.232Z,49.00
2018-10-19T03:25:58.080Z,47.50
2018-10-19T03:28:28.723Z,49.20
2018-10-19T03:30:58.611Z,49.40
2018-10-19T03:33:28.240Z,47.37
2018-10-19T03:35:57.824Z,47.50
2018-10-19T03:38:28.599Z,48.13
2018-10-19T03:40:58.534Z,52.80
2018-10-19T03:43:28.360Z,53.60
2018-10-19T03:45:58.271Z,49.50
2018-10-19T03:48:29.887Z,53.90
2018-10-19T03:50:59.503Z,54.00
2018-10-19T03:53:29.109Z,54.17
2018-10-19T03:55:59.935Z,53.53
2018-10-19T03:58:30.780Z,57.67
2018-10-19T04:01:04.808Z,61.13
2018-10-19T04:03:35.858Z,61.87
2018-10-19T04:06:08.993Z,61.97
2018-10-19T04:08:41.132Z,60.13
2018-10-19T04:11:18.757Z,62.70
2018-10-19T04:13:50.572Z,59.30
2018-10-19T04:16:21.296Z,63.20
2018-10-19T04:18:51.964Z,60.83
2018-10-19T04:21:21.820Z,59.10
2018-10-19T04:23:51.481Z,60.20
2018-10-19T04:26:22.659Z,58.43
2018-10-19T04:28:52.883Z,59.17
2018-10-19T04:31:23.032Z,60.20
2018-10-19T04:33:53.935Z,59.67
2018-10-19T04:36:23.864Z,63.10
2018-10-19T04:38:57.671Z,61.83
2018-10-19T04:41:31.285Z,60.90
2018-10-19T04:44:02.060Z,65.87
2018-10-19T04:46:32.940Z,63.87
2018-10-19T04:49:05.892Z,65.30
2018-10-19T04:51:35.817Z,59.17
2018-10-19T04:54:05.752Z,62.60
2018-10-19T04:56:40.675Z,62.03
2018-10-19T04:59:13.710Z,62.57
2018-10-19T05:01:43.152Z,63.10
2018-10-19T05:04:12.940Z,61.07
2018-10-19T05:06:43.921Z,62.23
2018-10-19T05:09:13.704Z,62.07
2018-10-19T05:11:43.299Z,60.40
2018-10-19T05:14:13.160Z,60.57
2018-10-19T05:16:42.956Z,62.83
2018-10-19T05:19:30.088Z,58.90
2018-10-19T05:21:59.956Z,58.10
2018-10-19T05:24:33.347Z,57.50
2018-10-19T05:27:03.269Z,57.73
2018-10-19T05:29:34.108Z,54.53
2018-10-19T05:32:04.069Z,55.13
2018-10-19T05:34:34.638Z,54.00
2018-10-19T05:37:04.669Z,53.40
2018-10-19T05:39:35.356Z,53.57
2018-10-19T05:42:05.281Z,52.77
2018-10-19T05:44:35.100Z,53.40
2018-10-19T05:47:08.014Z,54.00
2018-10-19T05:49:38.604Z,53.93
2018-10-19T05:52:14.244Z,50.50
2018-10-19T05:54:43.848Z,49.10
2018-10-19T05:57:19.407Z,47.73
2018-10-19T05:59:49.217Z,52.67
2018-10-19T06:02:20.132Z,48.43
2018-10-19T06:04:50.879Z,48.87
2018-10-19T06:07:28.652Z,54.63
2018-10-19T06:10:09.655Z,51.17
2018-10-19T06:12:39.484Z,55.50
2018-10-19T06:15:16.996Z,54.40
2018-10-19T06:17:51.407Z,54.20
2018-10-19T06:20:21.324Z,56.03
2018-10-19T06:22:51.119Z,57.30
2018-10-19T06:25:20.876Z,56.97
2018-10-19T06:27:50.780Z,57.37
2018-10-19T06:30:20.644Z,60.20
2018-10-19T06:32:50.200Z,58.80
2018-10-19T06:35:27.180Z,59.30
2018-10-19T06:38:00.384Z,57.37
2018-10-19T06:40:30.457Z,61.63
2018-10-19T06:43:07.148Z,62.50
2018-10-19T06:45:37.979Z,64.63
2018-10-19T06:48:09.599Z,64.30
2018-10-19T06:50:39.576Z,64.17
2018-10-19T06:53:09.449Z,64.17
2018-10-19T06:55:40.204Z,65.00
2018-10-19T06:58:10.091Z,67.80
2018-10-19T07:00:39.914Z,65.20
2018-10-19T07:03:10.732Z,65.10
2018-10-19T07:05:40.632Z,68.07
2018-10-19T07:08:18.712Z,68.37
2018-10-19T07:10:48.875Z,71.40
2018-10-19T07:13:18.639Z,73.13
2018-10-19T07:15:48.652Z,74.57
2018-10-19T07:18:18.415Z,70.67
2018-10-19T07:20:48.263Z,70.80
2018-10-19T07:23:17.832Z,71.00
2018-10-19T07:25:47.644Z,73.57
2018-10-19T07:28:18.576Z,71.67
2018-10-19T07:30:48.458Z,75.80
2018-10-19T07:33:18.312Z,73.03
2018-10-19T07:35:49.096Z,75.30
2018-10-19T07:38:18.941Z,72.57
2018-10-19T07:40:48.794Z,73.83
2018-10-19T07:43:18.692Z,70.67
2018-10-19T07:45:51.601Z,68.00
2018-10-19T07:48:22.155Z,70.90
2018-10-19T07:50:52.364Z,66.83
2018-10-19T07:53:27.260Z,62.00
2018-10-19T07:55:59.406Z,65.83
2018-10-19T07:58:29.964Z,63.87
2018-10-19T08:00:59.606Z,63.63
2018-10-19T08:03:30.071Z,60.00
2018-10-19T08:06:01.819Z,59.53
2018-10-19T08:08:33.377Z,61.73
2018-10-19T08:11:05.534Z,62.40
2018-10-19T08:13:40.955Z,60.10
2018-10-19T08:16:10.855Z,60.27
2018-10-19T08:18:42.659Z,57.80
2018-10-19T08:21:12.632Z,57.70
2018-10-19T08:23:42.140Z,58.50
2018-10-19T08:26:11.996Z,57.87
2018-10-19T08:28:41.823Z,56.20
2018-10-19T08:31:13.675Z,54.87
2018-10-19T08:33:44.289Z,53.83
2018-10-19T08:36:16.963Z,53.73
2018-10-19T08:38:50.460Z,51.43
2018-10-19T08:41:20.146Z,54.50
2018-10-19T08:43:49.607Z,52.43
2018-10-19T08:46:25.528Z,55.50
2018-10-19T08:49:07.377Z,52.47
2018-10-19T08:51:37.172Z,53.80
2018-10-19T08:54:13.239Z,51.70
2018-10-19T08:56:42.907Z,48.30
2018-10-19T08:59:12.695Z,49.73
2018-10-19T09:01:42.188Z,48.57
2018-10-19T09:04:12.672Z,45.40
2018-10-19T09:06:42.107Z,48.00
2018-10-19T09:09:12.184Z,47.90
2018-10-19T09:11:41.863Z,49.60
2018-10-19T09:14:26.847Z,47.50
2018-10-19T09:17:06.668Z,44.77
2018-10-19T09:19:36.293Z,46.17
2018-10-19T09:22:06.493Z,45.53
2018-10-19T09:24:41.571Z,43.20
2018-10-19T09:27:12.253Z,43.37
2018-10-19T09:29:41.813Z,41.60
2018-10-19T09:32:25.115Z,43.07
2018-10-19T09:35:01.618Z,39.57
2018-10-19T09:37:31.306Z,41.90
2018-10-19T09:40:13.527Z,39.23
2018-10-19T09:42:50.899Z,38.97
2018-10-19T09:45:20.595Z,40.87
2018-10-19T09:47:50.441Z,44.47
2018-10-19T09:50:20.347Z,43.90
2018-10-19T09:52:55.869Z,41.67
2018-10-19T09:55:26.643Z,41.73
2018-10-19T09:57:56.531Z,40.00
2018-10-19T10:00:34.768Z,39.67
2018-10-19T10:03:05.371Z,40.50
2018-10-19T10:05:35.100Z,41.63
2018-10-19T10:08:05.130Z,40.57
2018-10-19T10:10:40.952Z,41.83
2018-10-19T10:13:12.750Z,43.17
2018-10-19T10:15:42.347Z,40.27
2018-10-19T10:18:12.047Z,37.90
2018-10-19T10:20:42.712Z,39.40
2018-10-19T10:23:13.483Z,42.10
2018-10-19T10:25:47.267Z,37.70
2018-10-19T10:28:17.076Z,42.37
2018-10-19T10:30:52.531Z,39.37
2018-10-19T10:33:22.249Z,38.80
2018-10-19T10:35:52.887Z,37.27
2018-10-19T10:38:23.596Z,38.93
2018-10-19T10:40:53.468Z,38.50
2018-10-19T10:43:27.319Z,38.37
2018-10-19T10:45:56.903Z,37.83
2018-10-19T10:48:26.440Z,35.97
2018-10-19T10:51:00.156Z,36.97
2018-10-19T10:53:39.627Z,35.97
2018-10-19T10:56:10.603Z,36.13
2018-10-19T10:58:40.441Z,34.60
2018-10-19T11:01:14.280Z,39.67
2018-10-19T11:03:44.060Z,34.70
2018-10-19T11:06:13.723Z,33.97
2018-10-19T11:08:46.744Z,34.73
2018-10-19T11:11:16.635Z,37.27
2018-10-19T11:13:46.331Z,37.30
2018-10-19T11:16:19.115Z,35.53
2018-10-19T11:18:48.763Z,36.83
2018-10-19T11:21:19.510Z,32.77
2018-10-19T11:23:49.346Z,33.97
2018-10-19T11:26:19.128Z,33.93
2018-10-19T11:28:52.811Z,33.43
2018-10-19T11:31:22.476Z,32.77
2018-10-19T11:33:58.471Z,34.30
2018-10-19T11:36:29.227Z,34.63
2018-10-19T11:39:04.507Z,34.90
2018-10-19T11:41:40.299Z,32.70
2018-10-19T11:44:10.139Z,35.83
2018-10-19T11:46:41.015Z,32.40
2018-10-19T11:49:10.924Z,33.87
2018-10-19T11:51:41.688Z,34.10
2018-10-19T11:54:11.543Z,35.60
2018-10-19T11:56:41.449Z,39.37
2018-10-19T11:59:11.286Z,37.90
2018-10-19T12:01:41.007Z,36.60
2018-10-19T12:04:11.879Z,35.70
2018-10-19T12:06:41.407Z,34.50
2018-10-19T12:09:11.911Z,35.53
2018-10-19T12:11:41.526Z,33.37
2018-10-19T12:14:12.291Z,33.53
2018-10-19T12:16:41.987Z,31.53
2018-10-19T12:19:11.820Z,31.03
2018-10-19T12:21:41.447Z,28.57
2018-10-19T12:24:11.991Z,30.17
2018-10-19T12:26:41.467Z,28.73
2018-10-19T12:29:12.180Z,30.57
2018-10-19T12:31:42.831Z,31.87
2018-10-19T12:34:12.734Z,28.80
2018-10-19T12:36:44.395Z,29.63
2018-10-19T12:39:19.958Z,26.73
2018-10-19T12:41:49.869Z,28.67
2018-10-19T12:44:19.764Z,28.73
2018-10-19T12:47:01.876Z,31.70
2018-10-19T12:49:31.459Z,31.17
2018-10-19T12:52:04.811Z,34.00
2018-10-19T12:54:36.651Z,31.90
2018-10-19T12:57:08.314Z,32.37
2018-10-19T12:59:41.059Z,31.20
2018-10-19T13:02:16.599Z,30.80
2018-10-19T13:04:46.443Z,30.70
2018-10-19T13:07:16.371Z,29.10
2018-10-19T13:09:48.107Z,30.10
2018-10-19T13:12:18.744Z,28.60
2018-10-19T13:14:48.555Z,28.10
2018-10-19T13:17:20.393Z,29.57
2018-10-19T13:19:50.939Z,29.17
2018-10-19T13:22:21.759Z,27.10
2018-10-19T13:24:51.691Z,29.00
2018-10-19T13:27:21.612Z,28.87
2018-10-19T13:29:51.403Z,29.40
2018-10-19T13:32:22.232Z,30.90
2018-10-19T13:34:52.783Z,33.13
2018-10-19T13:37:23.485Z,30.90
2018-10-19T13:39:54.323Z,29.40
2018-10-19T13:42:23.871Z,28.30
2018-10-19T13:44:53.662Z,29.83
2018-10-19T13:47:25.523Z,30.33
2018-10-19T13:49:55.215Z,28.70
2018-10-19T13:52:28.211Z,27.97
2018-10-19T13:55:01.640Z,30.40
2018-10-19T13:57:33.535Z,29.20
2018-10-19T14:00:06.483Z,28.27
2018-10-19T14:02:38.643Z,30.13
2018-10-19T14:05:10.544Z,27.67
2018-10-19T14:07:40.283Z,28.70
2018-10-19T14:10:11.058Z,28.77
2018-10-19T14:12:41.110Z,28.90
2018-10-19T14:15:11.535Z,28.53
2018-10-19T14:17:41.651Z,27.43
2018-10-19T14:20:13.271Z,30.70
2018-10-19T14:22:45.919Z,30.70
2018-10-19T14:25:15.483Z,29.07
2018-10-19T14:27:46.435Z,28.80
2018-10-19T14:30:17.256Z,28.90
2018-10-19T14:32:46.956Z,29.07
2018-10-19T14:35:16.857Z,28.40
2018-10-19T14:37:47.011Z,26.97
2018-10-19T14:40:19.167Z,28.87
2018-10-19T14:42:49.135Z,29.37
2018-10-19T14:45:18.867Z,29.37
2018-10-19T14:47:48.587Z,30.60
2018-10-19T14:50:19.050Z,29.80
2018-10-19T14:52:48.603Z,30.83
2018-10-19T14:55:19.341Z,29.10
2018-10-19T15:00:17.144Z,30.73
2018-10-19T15:02:47.079Z,32.80
2018-10-19T15:05:19.490Z,30.70
2018-10-19T15:07:50.983Z,31.93
2018-10-19T15:10:22.354Z,33.77
2018-10-19T15:12:56.771Z,30.80
2018-10-19T15:15:27.939Z,32.13
2018-10-19T15:17:58.588Z,30.20
2018-10-19T15:20:29.383Z,31.40
2018-10-19T15:23:00.203Z,32.37
2018-10-19T15:25:30.031Z,34.50
2018-10-19T15:28:00.871Z,32.20
2018-10-19T15:30:30.818Z,33.80
2018-10-19T15:33:02.699Z,33.33
2018-10-19T15:35:38.659Z,33.27
2018-10-19T15:38:10.455Z,34.80
2018-10-19T15:40:40.159Z,34.60
2018-10-19T15:43:09.955Z,35.80
2018-10-19T15:45:40.643Z,35.20
2018-10-19T15:48:10.462Z,37.03
2018-10-19T15:50:40.138Z,35.80
2018-10-19T15:53:09.922Z,36.00
2018-10-19T15:55:39.530Z,36.10
2018-10-19T15:58:09.286Z,36.53
2018-10-19T16:00:40.233Z,37.27
2018-10-19T16:03:11.049Z,35.47
2018-10-19T16:05:40.619Z,35.90
2018-10-19T16:08:22.375Z,36.60
2018-10-19T16:10:52.060Z,37.83
2018-10-19T16:13:21.742Z,34.83
2018-10-19T16:15:52.378Z,35.17
2018-10-19T16:18:22.165Z,37.77
2018-10-19T16:20:52.090Z,39.83
2018-10-19T16:23:25.786Z,38.60
2018-10-19T16:25:55.587Z,38.77
2018-10-19T16:28:25.281Z,37.50
2018-10-19T16:30:56.118Z,38.27
2018-10-19T16:33:30.778Z,42.20
2018-10-19T16:36:00.588Z,35.83
2018-10-19T16:38:31.300Z,37.80
2018-10-19T16:41:03.188Z,37.20
2018-10-19T16:43:34.019Z,37.37
2018-10-19T16:46:05.184Z,37.27
2018-10-19T16:48:38.867Z,38.80
2018-10-19T16:51:11.925Z,38.33
2018-10-19T16:53:42.699Z,41.80
2018-10-19T16:56:17.871Z,40.73
2018-10-19T16:58:49.670Z,50.10
2018-10-19T17:01:19.518Z,45.37
2018-10-19T17:03:49.799Z,39.70
2018-10-19T17:06:20.704Z,38.60
2018-10-19T17:08:50.575Z,39.13
2018-10-19T17:11:22.471Z,39.93
2018-10-19T17:13:56.127Z,39.80
2018-10-19T17:16:25.872Z,41.17
2018-10-19T17:18:56.733Z,39.13
2018-10-19T17:21:28.728Z,39.90
2018-10-19T17:23:58.804Z,37.67
2018-10-19T17:26:31.719Z,39.87
2018-10-19T17:29:01.692Z,40.53
2018-10-19T17:31:33.373Z,40.53
2018-10-19T17:34:03.047Z,38.30
2018-10-19T17:36:33.095Z,40.20
2018-10-19T17:39:05.044Z,43.53
2018-10-19T17:41:36.819Z,41.70
2018-10-19T17:44:10.631Z,45.17
2018-10-19T17:46:43.373Z,42.50
2018-10-19T17:49:13.338Z,44.07
2018-10-19T17:51:45.171Z,42.27
2018-10-19T17:54:15.486Z,46.10
2018-10-19T17:56:45.560Z,42.90
2018-10-19T17:59:18.497Z,40.60
2018-10-19T18:01:49.312Z,41.87
2018-10-19T18:04:19.604Z,44.80
2018-10-19T18:06:51.343Z,43.57
2018-10-19T18:09:22.542Z,42.50
2018-10-19T18:11:57.883Z,43.60
2018-10-19T18:14:27.888Z,43.40
2018-10-19T18:16:57.663Z,42.87
2018-10-19T18:19:28.531Z,43.47
2018-10-19T18:21:59.409Z,42.10
2018-10-19T18:24:32.374Z,44.80
2018-10-19T18:27:02.174Z,42.33
2018-10-19T18:29:32.943Z,43.73
2018-10-19T18:32:02.909Z,43.50
2018-10-19T18:34:34.695Z,44.60
2018-10-19T18:37:04.567Z,44.53
2018-10-19T18:39:34.446Z,43.00
2018-10-19T18:42:04.162Z,43.53
2018-10-19T18:44:35.026Z,42.30
2018-10-19T18:47:09.000Z,44.23
2018-10-19T18:49:39.603Z,42.20
2018-10-19T18:52:09.946Z,44.47
2018-10-19T18:54:39.442Z,44.47
2018-10-19T18:57:12.002Z,43.53
2018-10-19T18:59:41.629Z,43.53
2018-10-19T19:02:14.170Z,41.40
2018-10-19T19:04:44.031Z,43.27
2018-10-19T19:07:15.871Z,45.00
2018-10-19T19:09:54.109Z,44.27
2018-10-19T19:12:23.999Z,43.47
2018-10-19T19:14:57.614Z,45.43
2018-10-19T19:17:28.368Z,46.27
2018-10-19T19:20:07.364Z,44.13
2018-10-19T19:22:37.931Z,43.83
2018-10-19T19:25:14.910Z,45.83
2018-10-19T19:27:47.843Z,43.33
2018-10-19T19:30:17.869Z,42.70
2018-10-19T19:32:52.671Z,44.17
2018-10-19T19:35:23.555Z,47.40
2018-10-19T19:37:53.755Z,47.70
2018-10-19T19:40:23.667Z,47.70
2018-10-19T19:42:55.276Z,46.43
2018-10-19T19:45:25.119Z,47.47
2018-10-19T19:48:00.311Z,47.83
2018-10-19T19:50:30.182Z,48.87
2018-10-19T19:53:01.108Z,49.33
2018-10-19T19:55:32.830Z,51.70
2018-10-19T19:58:03.508Z,47.80
2018-10-19T20:00:33.138Z,48.40
2018-10-19T20:03:02.911Z,48.10
2018-10-19T20:05:32.939Z,50.60
2018-10-19T20:08:08.304Z,50.17
2018-10-19T20:10:38.235Z,50.20
2018-10-19T20:13:08.077Z,52.43
2018-10-19T20:15:37.738Z,50.03
2018-10-19T20:18:08.600Z,51.40
2018-10-19T20:20:38.243Z,49.40
2018-10-19T20:23:08.126Z,49.57
2018-10-19T20:25:37.979Z,49.60
2018-10-19T20:28:09.863Z,51.70
2018-10-19T20:30:39.543Z,50.90
2018-10-19T20:35:57.707Z,47.27
2018-10-19T20:38:29.560Z,43.37
2018-10-19T20:40:59.485Z,42.80
2018-10-19T20:43:29.271Z,46.20
2018-10-19T20:46:00.201Z,47.57
2018-10-19T20:48:30.039Z,47.40
2018-10-19T20:50:59.943Z,46.77
2018-10-19T20:53:29.628Z,46.77
2018-10-19T20:55:59.512Z,47.20
2018-10-19T20:58:32.475Z,46.93
2018-10-19T21:01:02.384Z,48.33
2018-10-19T21:03:32.335Z,47.57
2018-10-19T21:06:04.287Z,48.77
2018-10-19T21:08:34.171Z,50.63
2018-10-19T21:11:05.861Z,48.43
2018-10-19T21:13:36.723Z,50.47
2018-10-19T21:16:06.821Z,44.83
2018-10-19T21:18:38.783Z,44.03
2018-10-19T21:21:09.447Z,45.93
2018-10-19T21:23:38.977Z,45.77
2018-10-19T21:26:09.988Z,44.67
2018-10-19T21:28:39.555Z,45.43
2018-10-19T21:31:09.463Z,47.17
2018-10-19T21:33:39.211Z,45.93
2018-10-19T21:36:09.132Z,46.47
2018-10-19T21:38:39.662Z,44.60
2018-10-19T21:41:09.421Z,47.10
2018-10-19T21:43:38.879Z,43.30
2018-10-19T21:46:09.658Z,47.80
2018-10-19T21:48:39.363Z,45.57
2018-10-19T21:51:09.735Z,45.70
2018-10-19T21:53:41.360Z,46.73
2018-10-19T21:56:16.819Z,46.97
2018-10-19T21:58:47.561Z,47.40
2018-10-19T22:01:17.294Z,45.07
2018-10-19T22:03:47.091Z,42.63
2018-10-19T22:06:16.919Z,41.87
2018-10-19T22:08:46.826Z,37.93
2018-10-19T22:11:16.832Z,37.03
2018-10-19T22:13:46.794Z,44.93
2018-10-19T22:16:16.810Z,39.17
2018-10-19T22:18:46.494Z,41.10
2018-10-19T22:21:18.451Z,40.27
2018-10-19T22:23:48.067Z,42.03
2018-10-19T22:26:17.761Z,40.30
2018-10-19T22:28:49.601Z,38.27
2018-10-19T22:31:20.251Z,43.30
2018-10-19T22:33:50.994Z,41.70
2018-10-19T22:36:21.838Z,45.83
2018-10-19T22:38:51.550Z,42.47
2018-10-19T22:41:23.322Z,39.60
2018-10-19T22:43:54.226Z,42.13
2018-10-19T22:46:25.066Z,41.13
2018-10-19T22:48:55.002Z,39.30
2018-10-19T22:51:24.999Z,38.93
2018-10-19T22:53:56.881Z,36.43
2018-10-19T22:56:27.830Z,39.47
2018-10-19T22:58:58.639Z,43.45
2018-10-19T23:01:29.254Z,38.65
2018-10-19T23:04:00.045Z,39.67
2018-10-19T23:06:29.922Z,42.65
2018-10-19T23:09:09.090Z,42.10
2018-10-19T23:11:38.755Z,41.58
2018-10-19T23:14:09.422Z,41.28
2018-10-19T23:16:39.034Z,41.48
2018-10-19T23:19:09.833Z,44.58
2018-10-19T23:21:40.317Z,40.70
2018-10-19T23:24:10.926Z,42.67
2018-10-19T23:26:40.758Z,39.10
2018-10-19T23:29:14.637Z,35.23
2018-10-19T23:31:44.607Z,32.83
2018-10-19T23:34:16.519Z,35.28
2018-10-19T23:36:46.470Z,35.48
2018-10-19T23:39:17.302Z,37.07
2018-10-19T23:41:51.118Z,37.00
2018-10-19T23:44:20.714Z,31.33
2018-10-19T23:46:51.462Z,33.65
2018-10-19T23:49:21.082Z,35.43
2018-10-19T23:51:56.662Z,38.02
2018-10-19T23:54:26.794Z,43.30
2018-10-19T23:56:57.438Z,43.60
2018-10-19T23:59:36.888Z,42.67
